createdAt,value
2018-07-20T00:01:10.533Z,12.80
2018-07-20T00:03:38.915Z,12.80
2018-07-20T00:06:07.296Z,12.80
2018-07-20T00:08:35.682Z,12.80
2018-07-20T00:11:04.011Z,12.70
2018-07-20T00:13:32.408Z,12.60
2018-07-20T00:16:00.794Z,12.50
2018-07-20T00:18:29.180Z,12.40
2018-07-20T00:25:53.758Z,12.10
2018-07-20T00:28:22.225Z,12.10
2018-07-20T00:30:50.581Z,12.20
2018-07-20T00:33:18.945Z,12.20
2018-07-20T00:35:47.330Z,12.30
2018-07-20T00:38:15.712Z,12.30
2018-07-20T00:40:44.055Z,12.30
2018-07-20T00:43:12.417Z,12.20
2018-07-20T00:45:40.837Z,12.10
2018-07-20T00:48:09.244Z,12.10
2018-07-20T00:50:37.645Z,12.00
2018-07-20T00:53:06.009Z,12.00
2018-07-20T00:55:34.397Z,11.90
2018-07-20T00:58:02.776Z,11.90
2018-07-20T01:00:31.133Z,11.80
2018-07-20T01:02:59.520Z,11.70
2018-07-20T01:05:28.091Z,11.60
2018-07-20T01:07:56.426Z,11.50
2018-07-20T01:10:24.807Z,11.50
2018-07-20T01:15:21.333Z,11.40
2018-07-20T01:17:49.711Z,11.40
2018-07-20T01:20:18.057Z,11.40
2018-07-20T01:22:46.436Z,11.40
2018-07-20T01:25:14.860Z,11.50
2018-07-20T01:30:11.281Z,11.60
2018-07-20T01:32:39.685Z,11.60
2018-07-20T01:35:08.088Z,11.70
2018-07-20T01:37:36.453Z,11.60
2018-07-20T01:40:05.036Z,11.60
2018-07-20T01:42:33.411Z,11.60
2018-07-20T01:45:01.764Z,11.60
2018-07-20T01:47:30.161Z,11.50
2018-07-20T01:49:58.481Z,11.50
2018-07-20T01:52:26.985Z,11.50
2018-07-20T01:54:55.369Z,11.50
2018-07-20T01:57:23.756Z,11.40
2018-07-20T01:59:52.152Z,11.40
2018-07-20T02:02:20.523Z,11.30
2018-07-20T02:04:48.870Z,11.30
2018-07-20T02:07:17.244Z,11.20
2018-07-20T02:09:45.627Z,11.10
2018-07-20T02:12:14.003Z,11.00
2018-07-20T02:14:42.430Z,10.80
2018-07-20T02:17:10.852Z,10.70
2018-07-20T02:19:39.272Z,10.70
2018-07-20T02:22:07.669Z,10.70
2018-07-20T02:24:36.060Z,10.60
2018-07-20T02:27:04.505Z,10.70
2018-07-20T02:29:32.905Z,10.60
2018-07-20T02:32:01.261Z,10.60
2018-07-20T02:34:29.653Z,10.60
2018-07-20T02:36:58.030Z,10.60
2018-07-20T02:39:26.440Z,10.70
2018-07-20T02:41:54.840Z,10.80
2018-07-20T02:44:23.323Z,10.80
2018-07-20T02:46:51.706Z,10.90
2018-07-20T02:49:20.000Z,10.90
2018-07-20T02:51:48.327Z,10.80
2018-07-20T02:56:44.854Z,10.80
2018-07-20T02:59:13.261Z,10.70
2018-07-20T03:01:41.627Z,10.50
2018-07-20T03:04:10.045Z,10.50
2018-07-20T03:06:38.406Z,10.40
2018-07-20T03:09:09.364Z,10.40
2018-07-20T03:11:37.655Z,10.40
2018-07-20T03:14:06.078Z,10.40
2018-07-20T03:16:34.445Z,10.40
2018-07-20T03:19:02.783Z,10.40
2018-07-20T03:21:31.151Z,10.50
2018-07-20T03:23:59.546Z,10.40
2018-07-20T03:26:28.050Z,10.40
2018-07-20T03:28:56.459Z,10.40
2018-07-20T03:31:24.866Z,10.40
2018-07-20T03:33:53.235Z,10.40
2018-07-20T03:36:21.600Z,10.40
2018-07-20T03:38:50.138Z,10.30
2018-07-20T03:41:18.465Z,10.30
2018-07-20T03:43:46.864Z,10.30
2018-07-20T03:46:15.184Z,10.30
2018-07-20T03:48:43.600Z,10.30
2018-07-20T03:51:11.944Z,10.30
2018-07-20T03:53:40.298Z,10.40
2018-07-20T03:56:08.653Z,10.40
2018-07-20T03:58:37.015Z,10.50
2018-07-20T04:01:05.457Z,10.40
2018-07-20T04:03:33.937Z,10.50
2018-07-20T04:06:02.349Z,10.50
2018-07-20T04:08:30.761Z,10.60
2018-07-20T04:10:59.084Z,10.70
2018-07-20T04:13:27.415Z,10.80
2018-07-20T04:15:55.745Z,10.90
2018-07-20T04:18:24.136Z,11.00
2018-07-20T04:20:52.552Z,11.10
2018-07-20T04:23:20.932Z,11.20
2018-07-20T04:25:49.346Z,11.30
2018-07-20T04:28:17.745Z,11.40
2018-07-20T04:30:46.496Z,11.50
2018-07-20T04:33:14.831Z,11.60
2018-07-20T04:35:43.206Z,11.80
2018-07-20T04:38:11.511Z,11.80
2018-07-20T04:40:39.929Z,11.90
2018-07-20T04:45:36.325Z,12.10
2018-07-20T04:48:04.759Z,12.10
2018-07-20T04:50:33.109Z,12.20
2018-07-20T04:53:01.496Z,12.30
2018-07-20T04:55:29.904Z,12.40
2018-07-20T04:57:58.235Z,12.70
2018-07-20T05:00:26.605Z,12.80
2018-07-20T05:02:54.980Z,13.10
2018-07-20T05:05:23.386Z,13.30
2018-07-20T05:07:51.756Z,13.50
2018-07-20T05:10:20.103Z,13.70
2018-07-20T05:12:48.416Z,13.90
2018-07-20T05:15:16.824Z,14.10
2018-07-20T05:17:45.157Z,14.30
2018-07-20T05:20:13.482Z,14.60
2018-07-20T05:22:41.854Z,14.90
2018-07-20T05:25:10.277Z,15.20
2018-07-20T05:27:38.641Z,15.50
2018-07-20T05:30:07.025Z,15.80
2018-07-20T05:32:35.406Z,16.20
2018-07-20T05:35:03.770Z,16.60
2018-07-20T05:37:32.135Z,16.90
2018-07-20T05:40:00.469Z,17.30
2018-07-20T05:44:56.913Z,18.00
2018-07-20T05:47:25.256Z,18.40
2018-07-20T05:49:53.647Z,18.60
2018-07-20T05:52:21.999Z,18.80
2018-07-20T05:54:50.313Z,19.10
2018-07-20T05:57:18.696Z,19.50
2018-07-20T05:59:47.074Z,19.90
2018-07-20T06:02:15.716Z,20.30
2018-07-20T06:04:44.071Z,20.90
2018-07-20T06:07:12.388Z,21.60
2018-07-20T06:09:40.807Z,22.10
2018-07-20T06:12:09.135Z,22.40
2018-07-20T06:14:37.468Z,22.80
2018-07-20T06:17:06.015Z,22.90
2018-07-20T06:19:34.395Z,23.10
2018-07-20T06:22:02.707Z,23.30
2018-07-20T06:26:59.074Z,23.80
2018-07-20T06:29:27.378Z,23.80
2018-07-20T06:31:55.696Z,24.10
2018-07-20T06:34:24.044Z,24.40
2018-07-20T06:36:52.436Z,25.00
2018-07-20T06:39:20.744Z,25.60
2018-07-20T06:41:49.044Z,27.40
2018-07-20T06:44:17.367Z,28.70
2018-07-20T06:46:45.721Z,29.80
2018-07-20T06:49:14.087Z,30.40
2018-07-20T06:51:42.412Z,31.20
2018-07-20T06:54:10.690Z,31.90
2018-07-20T06:59:07.142Z,32.70
2018-07-20T07:01:35.576Z,33.20
2018-07-20T07:04:03.928Z,33.10
2018-07-20T07:06:32.314Z,32.90
2018-07-20T07:09:00.668Z,33.00
2018-07-20T07:11:29.071Z,33.30
2018-07-20T07:13:57.394Z,33.20
2018-07-20T07:16:25.849Z,33.80
2018-07-20T07:18:54.218Z,33.70
2018-07-20T07:21:22.630Z,33.30
2018-07-20T07:23:50.932Z,33.30
2018-07-20T07:26:19.280Z,33.00
2018-07-20T07:28:47.665Z,33.10
2018-07-20T07:31:15.951Z,33.80
2018-07-20T07:33:44.240Z,33.50
2018-07-20T07:36:12.621Z,33.60
2018-07-20T07:38:40.922Z,34.40
2018-07-20T07:41:09.233Z,35.10
2018-07-20T07:43:37.518Z,35.40
2018-07-20T07:46:06.072Z,35.60
2018-07-20T07:48:34.355Z,35.30
2018-07-20T07:51:02.657Z,35.50
2018-07-20T07:53:30.937Z,35.50
2018-07-20T07:58:27.259Z,34.60
2018-07-20T08:00:55.554Z,34.60
2018-07-20T08:03:23.918Z,34.60
2018-07-20T08:05:52.180Z,34.80
2018-07-20T08:08:20.437Z,35.10
2018-07-20T08:10:48.714Z,34.80
2018-07-20T08:13:17.012Z,35.20
2018-07-20T08:15:45.339Z,35.50
2018-07-20T08:18:13.618Z,35.50
2018-07-20T08:20:41.964Z,35.60
2018-07-20T08:25:38.370Z,35.90
2018-07-20T08:28:06.676Z,35.40
2018-07-20T08:30:34.951Z,36.10
2018-07-20T08:33:03.280Z,36.30
2018-07-20T08:35:31.701Z,36.10
2018-07-20T08:38:00.111Z,36.10
2018-07-20T08:40:28.558Z,35.60
2018-07-20T08:42:56.856Z,35.80
2018-07-20T08:47:53.248Z,36.70
2018-07-20T08:50:21.636Z,35.80
2018-07-20T08:52:49.929Z,33.90
2018-07-20T08:55:18.236Z,32.60
2018-07-20T08:57:46.552Z,31.60
2018-07-20T09:00:14.810Z,31.00
2018-07-20T09:02:43.208Z,30.30
2018-07-20T09:05:11.569Z,30.10
2018-07-20T09:07:39.851Z,29.70
2018-07-20T09:10:08.217Z,30.20
2018-07-20T09:12:36.531Z,30.50
2018-07-20T09:15:05.044Z,30.40
2018-07-20T09:17:33.340Z,30.20
2018-07-20T09:22:29.767Z,29.40
2018-07-20T09:24:58.047Z,29.00
2018-07-20T09:27:26.325Z,28.60
2018-07-20T09:29:54.602Z,28.10
2018-07-20T09:34:51.194Z,27.20
2018-07-20T09:37:19.491Z,26.90
2018-07-20T09:39:47.771Z,26.80
2018-07-20T09:42:16.050Z,26.90
2018-07-20T09:44:44.382Z,26.80
2018-07-20T09:47:12.682Z,26.60
2018-07-20T09:49:40.946Z,26.40
2018-07-20T09:52:09.334Z,26.20
2018-07-20T09:54:37.607Z,26.10
2018-07-20T09:57:05.946Z,25.80
2018-07-20T09:59:34.278Z,25.70
2018-07-20T10:02:02.556Z,25.60
2018-07-20T10:04:31.008Z,25.60
2018-07-20T10:06:59.283Z,25.70
2018-07-20T10:09:27.663Z,25.60
2018-07-20T10:11:56.038Z,25.60
2018-07-20T10:14:24.337Z,25.50
2018-07-20T10:16:52.614Z,25.50
2018-07-20T10:19:20.906Z,25.40
2018-07-20T10:21:49.174Z,25.30
2018-07-20T10:24:17.514Z,25.10
2018-07-20T10:26:45.819Z,25.10
2018-07-20T10:29:14.112Z,25.10
2018-07-20T10:31:42.391Z,25.20
2018-07-20T10:34:10.708Z,25.30
2018-07-20T10:36:38.972Z,25.40
2018-07-20T10:39:08.438Z,25.30
2018-07-20T10:41:36.700Z,25.20
2018-07-20T10:44:05.002Z,25.10
2018-07-20T10:46:33.276Z,25.20
2018-07-20T10:49:01.605Z,25.30
2018-07-20T10:51:29.904Z,25.40
2018-07-20T10:53:58.501Z,25.40
2018-07-20T10:56:26.775Z,25.40
2018-07-20T10:58:55.329Z,25.50
2018-07-20T11:01:23.849Z,25.60
2018-07-20T11:03:52.077Z,25.80
2018-07-20T11:06:20.365Z,26.00
2018-07-20T11:08:48.652Z,26.10
2018-07-20T11:11:17.007Z,26.10
2018-07-20T11:13:45.307Z,26.10
2018-07-20T11:16:13.590Z,26.00
2018-07-20T11:18:41.907Z,25.90
2018-07-20T11:21:10.230Z,25.80
2018-07-20T11:23:38.499Z,25.80
2018-07-20T11:26:07.278Z,25.70
2018-07-20T11:28:35.561Z,25.70
2018-07-20T11:31:03.867Z,25.90
2018-07-20T11:33:32.237Z,26.10
2018-07-20T11:36:00.610Z,26.40
2018-07-20T11:38:28.934Z,26.70
2018-07-20T11:40:57.217Z,26.90
2018-07-20T11:45:53.524Z,26.70
2018-07-20T11:48:21.798Z,26.60
2018-07-20T11:50:50.131Z,26.50
2018-07-20T11:53:18.385Z,26.30
2018-07-20T11:55:46.700Z,26.00
2018-07-20T11:58:14.967Z,26.00
2018-07-20T12:00:43.245Z,25.90
2018-07-20T12:03:11.529Z,26.10
2018-07-20T12:05:39.803Z,26.10
2018-07-20T12:08:08.154Z,26.10
2018-07-20T12:10:36.466Z,26.10
2018-07-20T12:13:04.760Z,26.10
2018-07-20T12:15:33.087Z,26.30
2018-07-20T12:18:01.438Z,26.40
2018-07-20T12:20:29.750Z,26.50
2018-07-20T12:22:58.021Z,26.70
2018-07-20T12:25:26.482Z,26.90
2018-07-20T12:27:55.142Z,27.20
2018-07-20T12:30:23.855Z,27.40
2018-07-20T12:32:52.137Z,27.70
2018-07-20T12:35:20.488Z,27.60
2018-07-20T12:37:48.813Z,27.60
2018-07-20T12:40:17.102Z,27.40
2018-07-20T12:42:45.435Z,27.40
2018-07-20T12:45:13.740Z,27.40
2018-07-20T12:47:42.050Z,27.70
2018-07-20T12:50:10.414Z,27.70
2018-07-20T12:52:38.656Z,27.50
2018-07-20T12:55:07.151Z,27.40
2018-07-20T12:57:35.430Z,27.30
2018-07-20T13:00:03.781Z,27.20
2018-07-20T13:02:32.485Z,27.30
2018-07-20T13:05:00.876Z,27.30
2018-07-20T13:07:29.275Z,27.30
2018-07-20T13:09:57.610Z,27.30
2018-07-20T13:12:25.977Z,27.30
2018-07-20T13:14:54.294Z,27.40
2018-07-20T13:17:22.894Z,27.40
2018-07-20T13:19:51.907Z,27.40
2018-07-20T13:22:20.198Z,27.40
2018-07-20T13:24:48.615Z,27.30
2018-07-20T13:27:17.309Z,27.30
2018-07-20T13:29:45.652Z,27.30
2018-07-20T13:32:13.937Z,27.30
2018-07-20T13:34:42.283Z,27.40
2018-07-20T13:37:10.562Z,27.60
2018-07-20T13:39:38.936Z,27.70
2018-07-20T13:42:07.453Z,27.70
2018-07-20T13:44:35.895Z,27.80
2018-07-20T13:47:04.323Z,28.00
2018-07-20T13:49:32.795Z,28.00
2018-07-20T13:52:01.171Z,27.80
2018-07-20T13:54:29.496Z,27.70
2018-07-20T13:56:57.827Z,27.60
2018-07-20T13:59:26.200Z,27.70
2018-07-20T14:01:54.521Z,27.70
2018-07-20T14:04:22.900Z,27.50
2018-07-20T14:06:51.337Z,27.40
2018-07-20T14:09:19.670Z,27.30
2018-07-20T14:11:48.156Z,27.30
2018-07-20T14:14:16.488Z,27.30
2018-07-20T14:16:44.961Z,27.30
2018-07-20T14:19:13.208Z,27.20
2018-07-20T14:21:41.540Z,27.20
2018-07-20T14:24:09.907Z,27.20
2018-07-20T14:26:38.292Z,27.20
2018-07-20T14:29:06.571Z,27.10
2018-07-20T14:31:35.075Z,27.10
2018-07-20T14:34:03.390Z,27.10
2018-07-20T14:36:31.838Z,27.00
2018-07-20T14:39:00.193Z,27.00
2018-07-20T14:41:28.526Z,27.00
2018-07-20T14:43:56.802Z,27.00
2018-07-20T14:46:32.020Z,26.90
2018-07-20T14:49:00.388Z,26.90
2018-07-20T14:51:28.737Z,26.90
2018-07-20T14:53:57.073Z,26.90
2018-07-20T14:56:25.475Z,27.00
2018-07-20T15:01:22.154Z,27.10
2018-07-20T15:03:50.490Z,27.10
2018-07-20T15:06:18.895Z,27.10
2018-07-20T15:08:47.226Z,27.20
2018-07-20T15:11:15.574Z,27.30
2018-07-20T15:13:43.914Z,27.20
2018-07-20T15:16:12.257Z,27.10
2018-07-20T15:18:40.623Z,27.10
2018-07-20T15:21:08.946Z,27.20
2018-07-20T15:23:37.309Z,27.20
2018-07-20T15:26:05.693Z,27.30
2018-07-20T15:28:34.045Z,27.30
2018-07-20T15:31:02.481Z,27.30
2018-07-20T15:33:30.825Z,27.30
2018-07-20T15:35:59.254Z,27.30
2018-07-20T15:38:27.619Z,27.30
2018-07-20T15:40:55.969Z,27.30
2018-07-20T15:43:24.424Z,27.40
2018-07-20T15:46:05.765Z,27.60
2018-07-20T15:48:21.127Z,27.60
2018-07-20T15:50:49.555Z,27.60
2018-07-20T15:53:45.583Z,27.50
2018-07-20T15:55:46.240Z,27.50
2018-07-20T15:58:14.612Z,27.40
2018-07-20T16:03:11.092Z,27.00
2018-07-20T16:05:39.529Z,26.80
2018-07-20T16:08:07.813Z,26.60
2018-07-20T16:10:36.149Z,26.50
2018-07-20T16:13:04.666Z,26.30
2018-07-20T16:15:32.947Z,26.10
2018-07-20T16:18:01.312Z,26.00
2018-07-20T16:20:29.795Z,25.90
2018-07-20T16:22:58.151Z,25.80
2018-07-20T16:25:26.521Z,25.70
2018-07-20T16:27:54.872Z,25.60
2018-07-20T16:30:23.338Z,25.60
2018-07-20T16:32:51.678Z,25.60
2018-07-20T16:35:20.019Z,25.60
2018-07-20T16:37:48.448Z,25.50
2018-07-20T16:40:16.809Z,25.50
2018-07-20T16:42:45.258Z,25.50
2018-07-20T16:45:13.700Z,25.50
2018-07-20T16:47:42.050Z,25.40
2018-07-20T16:50:10.470Z,25.50
2018-07-20T16:52:38.764Z,25.40
2018-07-20T16:55:07.097Z,25.40
2018-07-20T16:57:35.414Z,25.40
2018-07-20T17:00:04.630Z,25.40
2018-07-20T17:02:32.953Z,25.30
2018-07-20T17:07:29.536Z,25.00
2018-07-20T17:09:57.873Z,24.90
2018-07-20T17:12:26.238Z,24.80
2018-07-20T17:14:54.622Z,24.70
2018-07-20T17:17:23.056Z,24.70
2018-07-20T17:19:51.410Z,24.60
2018-07-20T17:22:19.919Z,24.60
2018-07-20T17:24:48.247Z,24.50
2018-07-20T17:27:16.589Z,24.40
2018-07-20T17:29:45.050Z,24.40
2018-07-20T17:32:13.508Z,24.30
2018-07-20T17:34:41.906Z,24.40
2018-07-20T17:37:10.372Z,24.40
2018-07-20T17:39:38.802Z,24.40
2018-07-20T17:42:07.336Z,24.50
2018-07-20T17:44:36.202Z,24.40
2018-07-20T17:47:04.688Z,24.30
2018-07-20T17:49:33.135Z,24.30
2018-07-20T17:52:01.441Z,24.20
2018-07-20T17:54:29.905Z,24.30
2018-07-20T17:56:58.262Z,24.30
2018-07-20T17:59:26.712Z,24.30
2018-07-20T18:01:55.507Z,24.20
2018-07-20T18:04:23.805Z,24.10
2018-07-20T18:06:52.158Z,24.10
2018-07-20T18:09:20.566Z,24.00
2018-07-20T18:11:48.976Z,23.90
2018-07-20T18:14:17.321Z,23.90
2018-07-20T18:16:45.698Z,23.80
2018-07-20T18:19:14.066Z,23.60
2018-07-20T18:21:49.139Z,23.40
2018-07-20T18:24:17.548Z,23.30
2018-07-20T18:26:45.964Z,23.30
2018-07-20T18:29:14.400Z,23.20
2018-07-20T18:31:42.703Z,23.10
2018-07-20T18:34:11.087Z,23.00
2018-07-20T18:36:39.457Z,22.90
2018-07-20T18:39:09.957Z,22.80
2018-07-20T18:41:39.175Z,22.60
2018-07-20T18:44:07.682Z,22.50
2018-07-20T18:46:36.214Z,22.30
2018-07-20T18:49:04.607Z,22.10
2018-07-20T18:51:33.011Z,22.00
2018-07-20T18:54:01.361Z,21.80
2018-07-20T18:56:29.773Z,21.80
2018-07-20T18:58:58.178Z,21.60
2018-07-20T19:01:26.864Z,21.60
2018-07-20T19:03:55.207Z,21.50
2018-07-20T19:06:23.586Z,21.40
2018-07-20T19:08:51.932Z,21.30
2018-07-20T19:11:20.221Z,21.30
2018-07-20T19:13:48.588Z,21.20
2018-07-20T19:16:17.017Z,21.00
2018-07-20T19:18:45.310Z,20.80
2018-07-20T19:21:13.610Z,20.60
2018-07-20T19:23:41.934Z,20.40
2018-07-20T19:26:10.187Z,20.20
2018-07-20T19:28:38.455Z,20.00
2018-07-20T19:31:06.769Z,19.80
2018-07-20T19:33:35.037Z,19.60
2018-07-20T19:36:03.369Z,19.50
2018-07-20T19:38:31.667Z,19.30
2018-07-20T19:40:59.927Z,19.30
2018-07-20T19:43:28.236Z,19.10
2018-07-20T19:45:56.611Z,19.00
2018-07-20T19:48:24.967Z,18.80
2018-07-20T19:50:53.305Z,18.80
2018-07-20T19:53:21.715Z,18.90
2018-07-20T19:55:50.042Z,18.90
2018-07-20T19:58:18.344Z,19.00
2018-07-20T20:00:46.641Z,18.90
2018-07-20T20:03:14.907Z,18.90
2018-07-20T20:05:43.296Z,18.90
2018-07-20T20:08:11.609Z,18.90
2018-07-20T20:10:39.872Z,18.80
2018-07-20T20:13:08.217Z,18.60
2018-07-20T20:20:32.702Z,18.00
2018-07-20T20:23:01.094Z,17.90
2018-07-20T20:25:29.460Z,17.80
2018-07-20T20:27:57.771Z,17.80
2018-07-20T20:30:26.298Z,17.80
2018-07-20T20:32:54.569Z,17.80
2018-07-20T20:35:22.904Z,17.80
2018-07-20T20:37:51.234Z,17.60
2018-07-20T20:40:19.563Z,17.60
2018-07-20T20:42:47.908Z,17.50
2018-07-20T20:45:16.246Z,17.40
2018-07-20T20:47:44.707Z,17.40
2018-07-20T20:50:13.053Z,17.40
2018-07-20T20:52:41.441Z,17.30
2018-07-20T20:57:37.784Z,17.20
2018-07-20T21:00:06.623Z,17.20
2018-07-20T21:02:34.926Z,17.20
2018-07-20T21:05:03.302Z,17.30
2018-07-20T21:07:31.725Z,17.20
2018-07-20T21:10:00.031Z,17.10
2018-07-20T21:12:28.523Z,17.00
2018-07-20T21:14:56.821Z,16.90
2018-07-20T21:17:25.224Z,16.80
2018-07-20T21:19:53.581Z,16.80
2018-07-20T21:22:21.944Z,16.80
2018-07-20T21:24:50.400Z,16.90
2018-07-20T21:27:18.731Z,16.90
2018-07-20T21:29:47.202Z,16.90
2018-07-20T21:32:15.591Z,16.90
2018-07-20T21:34:43.995Z,16.80
2018-07-20T21:37:12.347Z,16.70
2018-07-20T21:39:40.783Z,16.60
2018-07-20T21:42:09.072Z,16.40
2018-07-20T21:44:37.538Z,16.30
2018-07-20T21:47:06.188Z,16.10
2018-07-20T21:49:34.617Z,16.00
2018-07-20T21:52:02.999Z,15.90
2018-07-20T21:54:31.401Z,15.90
2018-07-20T21:59:27.947Z,15.90
2018-07-20T22:01:57.123Z,15.70
2018-07-20T22:04:25.423Z,15.70
2018-07-20T22:06:53.755Z,15.70
2018-07-20T22:09:22.121Z,15.60
2018-07-20T22:11:50.478Z,15.60
2018-07-20T22:14:18.940Z,15.60
2018-07-20T22:16:47.279Z,15.60
2018-07-20T22:19:15.567Z,15.50
2018-07-20T22:21:43.833Z,15.40
2018-07-20T22:24:12.117Z,15.50
2018-07-20T22:26:40.402Z,15.50
2018-07-20T22:29:08.710Z,15.60
2018-07-20T22:31:36.971Z,15.50
2018-07-20T22:36:33.544Z,15.30
2018-07-20T22:39:01.852Z,15.20
2018-07-20T22:41:30.156Z,15.20
2018-07-20T22:43:58.454Z,15.10
2018-07-20T22:46:26.719Z,15.10
2018-07-20T22:48:54.997Z,15.00
2018-07-20T22:51:23.282Z,15.10
2018-07-20T22:53:51.671Z,15.20
2018-07-20T22:56:19.963Z,15.40
2018-07-20T22:58:48.220Z,15.40
2018-07-20T23:01:16.499Z,15.50
2018-07-20T23:03:44.808Z,15.40
2018-07-20T23:06:13.087Z,15.50
2018-07-20T23:08:41.401Z,15.50
2018-07-20T23:11:09.703Z,15.50
2018-07-20T23:13:38.383Z,15.60
2018-07-20T23:16:06.695Z,15.60
2018-07-20T23:18:35.092Z,15.60
2018-07-20T23:21:03.443Z,15.60
2018-07-20T23:23:31.814Z,15.60
2018-07-20T23:26:00.113Z,15.50
2018-07-20T23:28:28.380Z,15.50
2018-07-20T23:30:56.692Z,15.40
2018-07-20T23:33:24.977Z,15.40
2018-07-20T23:35:53.268Z,15.40
2018-07-20T23:38:21.538Z,15.30
2018-07-20T23:40:49.838Z,15.30
2018-07-20T23:43:18.124Z,15.20
2018-07-20T23:45:46.521Z,15.10
2018-07-20T23:48:14.812Z,15.00
2018-07-20T23:50:43.116Z,14.90
2018-07-20T23:53:11.364Z,14.90
2018-07-20T23:55:39.660Z,14.80
2018-07-20T23:58:07.950Z,14.70
